sensor_id;sensor_type;location;lat;lon;timestamp;P1;durP1;ratioP1;P2;durP2;ratioP2
33459;SDS011;19795;53.160;6.612;2023-04-15T00:00:53;31.77;;;28.70;;
33459;SDS011;19795;53.160;6.612;2023-04-15T00:03:19;35.05;;;32.35;;
33459;SDS011;19795;53.160;6.612;2023-04-15T00:05:44;38.22;;;35.53;;
33459;SDS011;19795;53.160;6.612;2023-04-15T00:08:10;32.40;;;30.17;;
33459;SDS011;19795;53.160;6.612;2023-04-15T00:10:36;35.90;;;32.83;;
33459;SDS011;19795;53.160;6.612;2023-04-15T00:13:02;33.38;;;30.88;;
33459;SDS011;19795;53.160;6.612;2023-04-15T00:15:28;29.67;;;27.45;;
33459;SDS011;19795;53.160;6.612;2023-04-15T00:17:54;15.18;;;5.97;;
33459;SDS011;19795;53.160;6.612;2023-04-15T00:20:19;12.40;;;6.65;;
33459;SDS011;19795;53.160;6.612;2023-04-15T00:22:45;13.55;;;6.47;;
33459;SDS011;19795;53.160;6.612;2023-04-15T00:25:11;13.50;;;6.78;;
33459;SDS011;19795;53.160;6.612;2023-04-15T00:27:37;12.02;;;7.07;;
33459;SDS011;19795;53.160;6.612;2023-04-15T00:30:02;17.23;;;8.32;;
33459;SDS011;19795;53.160;6.612;2023-04-15T00:32:29;13.57;;;9.48;;
33459;SDS011;19795;53.160;6.612;2023-04-15T00:34:55;17.25;;;8.88;;
33459;SDS011;19795;53.160;6.612;2023-04-15T00:37:21;13.60;;;10.57;;
33459;SDS011;19795;53.160;6.612;2023-04-15T00:39:47;15.23;;;11.73;;
33459;SDS011;19795;53.160;6.612;2023-04-15T00:42:13;19.30;;;10.02;;
33459;SDS011;19795;53.160;6.612;2023-04-15T00:44:39;17.35;;;12.05;;
33459;SDS011;19795;53.160;6.612;2023-04-15T00:47:05;14.88;;;10.15;;
33459;SDS011;19795;53.160;6.612;2023-04-15T00:49:31;16.15;;;7.32;;
33459;SDS011;19795;53.160;6.612;2023-04-15T00:51:57;13.40;;;7.90;;
33459;SDS011;19795;53.160;6.612;2023-04-15T00:54:22;15.43;;;8.75;;
33459;SDS011;19795;53.160;6.612;2023-04-15T00:56:48;12.57;;;8.18;;
33459;SDS011;19795;53.160;6.612;2023-04-15T00:59:14;17.20;;;8.70;;
33459;SDS011;19795;53.160;6.612;2023-04-15T01:01:40;16.38;;;9.00;;
33459;SDS011;19795;53.160;6.612;2023-04-15T01:04:06;14.32;;;8.32;;
33459;SDS011;19795;53.160;6.612;2023-04-15T01:06:34;21.65;;;10.63;;
33459;SDS011;19795;53.160;6.612;2023-04-15T01:08:59;20.55;;;9.82;;
33459;SDS011;19795;53.160;6.612;2023-04-15T01:11:26;17.80;;;11.82;;
33459;SDS011;19795;53.160;6.612;2023-04-15T01:13:52;19.40;;;11.45;;
33459;SDS011;19795;53.160;6.612;2023-04-15T01:16:20;20.67;;;12.50;;
33459;SDS011;19795;53.160;6.612;2023-04-15T01:18:46;18.15;;;13.85;;
33459;SDS011;19795;53.160;6.612;2023-04-15T01:21:12;18.98;;;11.60;;
33459;SDS011;19795;53.160;6.612;2023-04-15T01:23:38;17.23;;;13.30;;
33459;SDS011;19795;53.160;6.612;2023-04-15T01:26:04;18.40;;;9.45;;
33459;SDS011;19795;53.160;6.612;2023-04-15T01:28:32;17.88;;;10.65;;
33459;SDS011;19795;53.160;6.612;2023-04-15T01:31:09;19.42;;;11.65;;
33459;SDS011;19795;53.160;6.612;2023-04-15T01:33:37;19.88;;;11.82;;
33459;SDS011;19795;53.160;6.612;2023-04-15T01:36:03;16.05;;;11.57;;
33459;SDS011;19795;53.160;6.612;2023-04-15T01:38:30;21.50;;;13.10;;
33459;SDS011;19795;53.160;6.612;2023-04-15T01:40:57;16.48;;;13.95;;
33459;SDS011;19795;53.160;6.612;2023-04-15T01:43:23;17.40;;;13.13;;
33459;SDS011;19795;53.160;6.612;2023-04-15T01:45:49;19.27;;;12.48;;
33459;SDS011;19795;53.160;6.612;2023-04-15T01:48:15;19.48;;;11.88;;
33459;SDS011;19795;53.160;6.612;2023-04-15T01:50:41;20.58;;;11.35;;
33459;SDS011;19795;53.160;6.612;2023-04-15T01:53:07;21.83;;;12.45;;
33459;SDS011;19795;53.160;6.612;2023-04-15T01:55:33;18.42;;;11.63;;
33459;SDS011;19795;53.160;6.612;2023-04-15T01:57:59;19.77;;;11.15;;
33459;SDS011;19795;53.160;6.612;2023-04-15T02:00:28;17.90;;;11.63;;
33459;SDS011;19795;53.160;6.612;2023-04-15T02:02:54;23.15;;;13.20;;
33459;SDS011;19795;53.160;6.612;2023-04-15T02:05:20;18.85;;;12.73;;
33459;SDS011;19795;53.160;6.612;2023-04-15T02:07:46;21.83;;;14.68;;
33459;SDS011;19795;53.160;6.612;2023-04-15T02:10:12;16.83;;;13.40;;
33459;SDS011;19795;53.160;6.612;2023-04-15T02:12:38;19.65;;;14.48;;
33459;SDS011;19795;53.160;6.612;2023-04-15T02:15:04;20.27;;;14.30;;
33459;SDS011;19795;53.160;6.612;2023-04-15T02:17:33;20.50;;;15.05;;
33459;SDS011;19795;53.160;6.612;2023-04-15T02:19:59;23.92;;;18.52;;
33459;SDS011;19795;53.160;6.612;2023-04-15T02:22:25;25.60;;;15.82;;
33459;SDS011;19795;53.160;6.612;2023-04-15T02:24:50;24.50;;;16.15;;
33459;SDS011;19795;53.160;6.612;2023-04-15T02:27:16;20.95;;;14.90;;
33459;SDS011;19795;53.160;6.612;2023-04-15T02:29:45;23.58;;;16.00;;
33459;SDS011;19795;53.160;6.612;2023-04-15T02:32:11;24.27;;;16.35;;
33459;SDS011;19795;53.160;6.612;2023-04-15T02:34:38;20.80;;;18.38;;
33459;SDS011;19795;53.160;6.612;2023-04-15T02:37:06;21.20;;;17.55;;
33459;SDS011;19795;53.160;6.612;2023-04-15T02:39:36;25.00;;;18.58;;
33459;SDS011;19795;53.160;6.612;2023-04-15T02:42:02;24.45;;;18.60;;
33459;SDS011;19795;53.160;6.612;2023-04-15T02:44:28;22.92;;;19.67;;
33459;SDS011;19795;53.160;6.612;2023-04-15T02:46:55;24.48;;;17.30;;
33459;SDS011;19795;53.160;6.612;2023-04-15T02:49:22;22.17;;;16.02;;
33459;SDS011;19795;53.160;6.612;2023-04-15T02:51:48;24.13;;;15.10;;
33459;SDS011;19795;53.160;6.612;2023-04-15T02:54:19;24.20;;;14.07;;
33459;SDS011;19795;53.160;6.612;2023-04-15T02:56:46;21.65;;;14.52;;
33459;SDS011;19795;53.160;6.612;2023-04-15T02:59:12;21.60;;;13.32;;
33459;SDS011;19795;53.160;6.612;2023-04-15T03:01:38;17.90;;;12.13;;
33459;SDS011;19795;53.160;6.612;2023-04-15T03:04:03;19.00;;;12.98;;
33459;SDS011;19795;53.160;6.612;2023-04-15T03:06:30;20.48;;;12.38;;
33459;SDS011;19795;53.160;6.612;2023-04-15T03:08:56;20.60;;;11.38;;
33459;SDS011;19795;53.160;6.612;2023-04-15T03:11:24;19.40;;;12.13;;
33459;SDS011;19795;53.160;6.612;2023-04-15T03:13:51;19.95;;;12.85;;
33459;SDS011;19795;53.160;6.612;2023-04-15T03:16:16;21.88;;;15.90;;
33459;SDS011;19795;53.160;6.612;2023-04-15T03:18:42;24.63;;;16.27;;
33459;SDS011;19795;53.160;6.612;2023-04-15T03:21:07;26.35;;;18.23;;
33459;SDS011;19795;53.160;6.612;2023-04-15T03:23:33;24.58;;;12.65;;
33459;SDS011;19795;53.160;6.612;2023-04-15T03:26:02;24.60;;;11.15;;
33459;SDS011;19795;53.160;6.612;2023-04-15T03:28:28;22.92;;;11.15;;
33459;SDS011;19795;53.160;6.612;2023-04-15T03:30:55;30.55;;;14.48;;
33459;SDS011;19795;53.160;6.612;2023-04-15T03:33:20;26.63;;;14.82;;
33459;SDS011;19795;53.160;6.612;2023-04-15T03:35:46;27.90;;;12.68;;
33459;SDS011;19795;53.160;6.612;2023-04-15T03:38:12;33.95;;;13.02;;
33459;SDS011;19795;53.160;6.612;2023-04-15T03:40:39;23.98;;;11.43;;
33459;SDS011;19795;53.160;6.612;2023-04-15T03:43:05;28.80;;;11.95;;
33459;SDS011;19795;53.160;6.612;2023-04-15T03:45:31;22.63;;;11.23;;
33459;SDS011;19795;53.160;6.612;2023-04-15T03:47:57;28.25;;;11.75;;
33459;SDS011;19795;53.160;6.612;2023-04-15T03:50:22;26.05;;;12.73;;
33459;SDS011;19795;53.160;6.612;2023-04-15T03:52:48;30.20;;;13.18;;
33459;SDS011;19795;53.160;6.612;2023-04-15T03:55:14;31.88;;;14.02;;
33459;SDS011;19795;53.160;6.612;2023-04-15T03:57:40;30.27;;;13.93;;
33459;SDS011;19795;53.160;6.612;2023-04-15T04:00:06;31.63;;;14.55;;
33459;SDS011;19795;53.160;6.612;2023-04-15T04:02:36;28.88;;;12.77;;
33459;SDS011;19795;53.160;6.612;2023-04-15T04:05:02;30.25;;;13.48;;
33459;SDS011;19795;53.160;6.612;2023-04-15T04:07:28;31.52;;;13.63;;
33459;SDS011;19795;53.160;6.612;2023-04-15T04:09:54;33.20;;;14.85;;
33459;SDS011;19795;53.160;6.612;2023-04-15T04:12:20;37.50;;;16.13;;
33459;SDS011;19795;53.160;6.612;2023-04-15T04:14:46;36.45;;;14.82;;
33459;SDS011;19795;53.160;6.612;2023-04-15T04:17:12;39.53;;;15.18;;
33459;SDS011;19795;53.160;6.612;2023-04-15T04:19:37;32.85;;;15.57;;
33459;SDS011;19795;53.160;6.612;2023-04-15T04:22:03;34.10;;;14.75;;
33459;SDS011;19795;53.160;6.612;2023-04-15T04:24:29;28.35;;;13.40;;
33459;SDS011;19795;53.160;6.612;2023-04-15T04:26:55;35.00;;;15.65;;
33459;SDS011;19795;53.160;6.612;2023-04-15T04:29:21;40.00;;;16.65;;
33459;SDS011;19795;53.160;6.612;2023-04-15T04:31:47;36.50;;;15.95;;
33459;SDS011;19795;53.160;6.612;2023-04-15T04:34:13;39.45;;;14.85;;
33459;SDS011;19795;53.160;6.612;2023-04-15T04:36:39;33.00;;;14.93;;
33459;SDS011;19795;53.160;6.612;2023-04-15T04:39:05;36.17;;;14.32;;
33459;SDS011;19795;53.160;6.612;2023-04-15T04:41:31;33.08;;;14.90;;
33459;SDS011;19795;53.160;6.612;2023-04-15T04:43:56;37.25;;;14.73;;
33459;SDS011;19795;53.160;6.612;2023-04-15T04:46:22;35.72;;;16.00;;
33459;SDS011;19795;53.160;6.612;2023-04-15T04:48:48;33.08;;;14.80;;
33459;SDS011;19795;53.160;6.612;2023-04-15T04:51:13;30.55;;;13.95;;
33459;SDS011;19795;53.160;6.612;2023-04-15T04:53:39;30.67;;;14.02;;
33459;SDS011;19795;53.160;6.612;2023-04-15T04:56:07;36.53;;;13.90;;
33459;SDS011;19795;53.160;6.612;2023-04-15T04:58:33;37.50;;;15.30;;
33459;SDS011;19795;53.160;6.612;2023-04-15T05:00:58;33.83;;;15.13;;
33459;SDS011;19795;53.160;6.612;2023-04-15T05:03:24;34.95;;;14.45;;
33459;SDS011;19795;53.160;6.612;2023-04-15T05:05:51;32.58;;;15.05;;
33459;SDS011;19795;53.160;6.612;2023-04-15T05:08:17;41.13;;;16.15;;
33459;SDS011;19795;53.160;6.612;2023-04-15T05:10:42;37.00;;;17.50;;
33459;SDS011;19795;53.160;6.612;2023-04-15T05:13:08;38.05;;;17.85;;
33459;SDS011;19795;53.160;6.612;2023-04-15T05:15:33;43.72;;;18.98;;
33459;SDS011;19795;53.160;6.612;2023-04-15T05:18:01;57.78;;;24.10;;
33459;SDS011;19795;53.160;6.612;2023-04-15T05:20:26;51.80;;;26.00;;
33459;SDS011;19795;53.160;6.612;2023-04-15T05:22:52;56.28;;;26.00;;
33459;SDS011;19795;53.160;6.612;2023-04-15T05:25:18;49.08;;;23.52;;
33459;SDS011;19795;53.160;6.612;2023-04-15T05:27:43;42.95;;;20.25;;
33459;SDS011;19795;53.160;6.612;2023-04-15T05:30:09;38.33;;;18.48;;
33459;SDS011;19795;53.160;6.612;2023-04-15T05:32:35;39.13;;;17.77;;
33459;SDS011;19795;53.160;6.612;2023-04-15T05:35:00;36.53;;;18.48;;
33459;SDS011;19795;53.160;6.612;2023-04-15T05:37:27;37.13;;;17.67;;
33459;SDS011;19795;53.160;6.612;2023-04-15T05:39:52;33.65;;;15.80;;
33459;SDS011;19795;53.160;6.612;2023-04-15T05:42:18;33.78;;;15.35;;
33459;SDS011;19795;53.160;6.612;2023-04-15T05:44:43;32.10;;;15.80;;
33459;SDS011;19795;53.160;6.612;2023-04-15T05:47:09;23.25;;;12.48;;
33459;SDS011;19795;53.160;6.612;2023-04-15T05:49:35;28.50;;;14.15;;
33459;SDS011;19795;53.160;6.612;2023-04-15T05:52:01;25.30;;;12.68;;
33459;SDS011;19795;53.160;6.612;2023-04-15T05:54:27;22.83;;;12.93;;
33459;SDS011;19795;53.160;6.612;2023-04-15T05:56:53;22.75;;;12.18;;
33459;SDS011;19795;53.160;6.612;2023-04-15T05:59:18;20.60;;;11.18;;
33459;SDS011;19795;53.160;6.612;2023-04-15T06:01:44;19.42;;;14.50;;
33459;SDS011;19795;53.160;6.612;2023-04-15T06:04:10;19.88;;;14.65;;
33459;SDS011;19795;53.160;6.612;2023-04-15T06:06:36;21.88;;;13.25;;
33459;SDS011;19795;53.160;6.612;2023-04-15T06:09:02;20.75;;;11.32;;
33459;SDS011;19795;53.160;6.612;2023-04-15T06:11:28;19.95;;;10.05;;
33459;SDS011;19795;53.160;6.612;2023-04-15T06:13:54;20.80;;;10.43;;
33459;SDS011;19795;53.160;6.612;2023-04-15T06:16:20;20.50;;;11.75;;
33459;SDS011;19795;53.160;6.612;2023-04-15T06:18:47;20.80;;;10.45;;
33459;SDS011;19795;53.160;6.612;2023-04-15T06:21:12;17.60;;;9.70;;
33459;SDS011;19795;53.160;6.612;2023-04-15T06:23:38;14.25;;;8.38;;
33459;SDS011;19795;53.160;6.612;2023-04-15T06:26:05;18.75;;;10.85;;
33459;SDS011;19795;53.160;6.612;2023-04-15T06:28:31;13.88;;;8.05;;
33459;SDS011;19795;53.160;6.612;2023-04-15T06:30:57;16.55;;;8.38;;
33459;SDS011;19795;53.160;6.612;2023-04-15T06:33:22;23.08;;;21.27;;
33459;SDS011;19795;53.160;6.612;2023-04-15T06:35:48;16.58;;;8.20;;
33459;SDS011;19795;53.160;6.612;2023-04-15T06:38:14;13.88;;;7.93;;
33459;SDS011;19795;53.160;6.612;2023-04-15T06:40:40;20.02;;;18.00;;
33459;SDS011;19795;53.160;6.612;2023-04-15T06:43:06;14.18;;;7.60;;
33459;SDS011;19795;53.160;6.612;2023-04-15T06:45:33;14.57;;;9.55;;
33459;SDS011;19795;53.160;6.612;2023-04-15T06:47:58;14.23;;;7.95;;
33459;SDS011;19795;53.160;6.612;2023-04-15T06:50:24;13.65;;;7.65;;
33459;SDS011;19795;53.160;6.612;2023-04-15T06:52:51;16.08;;;7.82;;
33459;SDS011;19795;53.160;6.612;2023-04-15T06:55:17;13.80;;;7.30;;
33459;SDS011;19795;53.160;6.612;2023-04-15T06:57:43;14.00;;;8.43;;
33459;SDS011;19795;53.160;6.612;2023-04-15T07:00:09;12.40;;;7.00;;
33459;SDS011;19795;53.160;6.612;2023-04-15T07:02:36;14.05;;;7.40;;
33459;SDS011;19795;53.160;6.612;2023-04-15T07:05:01;14.30;;;6.65;;
33459;SDS011;19795;53.160;6.612;2023-04-15T07:07:28;11.18;;;8.02;;
33459;SDS011;19795;53.160;6.612;2023-04-15T07:09:54;16.58;;;8.10;;
33459;SDS011;19795;53.160;6.612;2023-04-15T07:12:20;14.45;;;7.68;;
33459;SDS011;19795;53.160;6.612;2023-04-15T07:14:45;13.77;;;7.47;;
33459;SDS011;19795;53.160;6.612;2023-04-15T07:17:11;11.98;;;7.07;;
33459;SDS011;19795;53.160;6.612;2023-04-15T07:19:37;11.85;;;7.55;;
33459;SDS011;19795;53.160;6.612;2023-04-15T07:22:02;13.70;;;7.05;;
33459;SDS011;19795;53.160;6.612;2023-04-15T07:24:28;13.40;;;6.63;;
33459;SDS011;19795;53.160;6.612;2023-04-15T07:26:55;12.15;;;7.20;;
33459;SDS011;19795;53.160;6.612;2023-04-15T07:29:23;18.10;;;16.38;;
33459;SDS011;19795;53.160;6.612;2023-04-15T07:31:50;18.85;;;16.52;;
33459;SDS011;19795;53.160;6.612;2023-04-15T07:34:16;11.80;;;6.38;;
33459;SDS011;19795;53.160;6.612;2023-04-15T07:36:43;11.85;;;8.50;;
33459;SDS011;19795;53.160;6.612;2023-04-15T07:39:08;11.95;;;10.98;;
33459;SDS011;19795;53.160;6.612;2023-04-15T07:41:34;14.27;;;6.35;;
33459;SDS011;19795;53.160;6.612;2023-04-15T07:43:59;12.07;;;10.93;;
33459;SDS011;19795;53.160;6.612;2023-04-15T07:46:25;10.45;;;6.30;;
33459;SDS011;19795;53.160;6.612;2023-04-15T07:48:53;7.50;;;4.53;;
33459;SDS011;19795;53.160;6.612;2023-04-15T07:51:19;12.10;;;5.47;;
33459;SDS011;19795;53.160;6.612;2023-04-15T07:53:45;14.07;;;8.30;;
33459;SDS011;19795;53.160;6.612;2023-04-15T07:56:12;14.55;;;13.35;;
33459;SDS011;19795;53.160;6.612;2023-04-15T07:58:38;23.85;;;22.27;;
33459;SDS011;19795;53.160;6.612;2023-04-15T08:01:03;9.52;;;6.15;;
33459;SDS011;19795;53.160;6.612;2023-04-15T08:03:29;8.55;;;4.80;;
33459;SDS011;19795;53.160;6.612;2023-04-15T08:05:56;11.48;;;5.22;;
33459;SDS011;19795;53.160;6.612;2023-04-15T08:08:21;9.88;;;5.55;;
33459;SDS011;19795;53.160;6.612;2023-04-15T08:10:47;12.07;;;5.72;;
33459;SDS011;19795;53.160;6.612;2023-04-15T08:13:13;12.43;;;6.32;;
33459;SDS011;19795;53.160;6.612;2023-04-15T08:15:39;11.70;;;6.57;;
33459;SDS011;19795;53.160;6.612;2023-04-15T08:18:05;10.38;;;5.20;;
33459;SDS011;19795;53.160;6.612;2023-04-15T08:20:31;12.25;;;5.57;;
33459;SDS011;19795;53.160;6.612;2023-04-15T08:22:57;11.15;;;7.75;;
33459;SDS011;19795;53.160;6.612;2023-04-15T08:25:22;13.95;;;5.82;;
33459;SDS011;19795;53.160;6.612;2023-04-15T08:27:48;42.92;;;39.22;;
33459;SDS011;19795;53.160;6.612;2023-04-15T08:30:14;10.52;;;5.03;;
33459;SDS011;19795;53.160;6.612;2023-04-15T08:32:41;9.00;;;4.22;;
33459;SDS011;19795;53.160;6.612;2023-04-15T08:35:10;10.02;;;8.82;;
33459;SDS011;19795;53.160;6.612;2023-04-15T08:37:36;7.57;;;4.38;;
33459;SDS011;19795;53.160;6.612;2023-04-15T08:40:02;8.98;;;5.22;;
33459;SDS011;19795;53.160;6.612;2023-04-15T08:42:36;9.68;;;4.72;;
33459;SDS011;19795;53.160;6.612;2023-04-15T08:45:06;12.20;;;11.35;;
33459;SDS011;19795;53.160;6.612;2023-04-15T08:47:35;6.63;;;4.00;;
33459;SDS011;19795;53.160;6.612;2023-04-15T08:50:03;8.32;;;3.15;;
33459;SDS011;19795;53.160;6.612;2023-04-15T08:52:33;9.88;;;3.55;;
33459;SDS011;19795;53.160;6.612;2023-04-15T08:54:59;6.57;;;4.55;;
33459;SDS011;19795;53.160;6.612;2023-04-15T08:57:29;8.32;;;5.57;;
33459;SDS011;19795;53.160;6.612;2023-04-15T08:59:56;7.32;;;5.88;;
33459;SDS011;19795;53.160;6.612;2023-04-15T09:02:25;5.25;;;2.70;;
33459;SDS011;19795;53.160;6.612;2023-04-15T09:04:51;6.03;;;5.22;;
33459;SDS011;19795;53.160;6.612;2023-04-15T09:07:18;4.57;;;3.50;;
33459;SDS011;19795;53.160;6.612;2023-04-15T09:09:43;5.68;;;2.20;;
33459;SDS011;19795;53.160;6.612;2023-04-15T09:12:10;5.25;;;3.85;;
33459;SDS011;19795;53.160;6.612;2023-04-15T09:14:37;3.97;;;3.15;;
33459;SDS011;19795;53.160;6.612;2023-04-15T09:17:04;10.82;;;10.05;;
33459;SDS011;19795;53.160;6.612;2023-04-15T09:19:33;9.90;;;9.25;;
33459;SDS011;19795;53.160;6.612;2023-04-15T09:21:59;6.57;;;2.60;;
33459;SDS011;19795;53.160;6.612;2023-04-15T09:24:32;6.78;;;6.20;;
33459;SDS011;19795;53.160;6.612;2023-04-15T09:27:01;6.47;;;2.35;;
33459;SDS011;19795;53.160;6.612;2023-04-15T09:29:27;10.45;;;9.77;;
33459;SDS011;19795;53.160;6.612;2023-04-15T09:31:53;36.67;;;34.72;;
33459;SDS011;19795;53.160;6.612;2023-04-15T09:34:18;4.68;;;2.10;;
33459;SDS011;19795;53.160;6.612;2023-04-15T09:39:11;4.38;;;2.53;;
33459;SDS011;19795;53.160;6.612;2023-04-15T09:41:37;5.70;;;5.10;;
33459;SDS011;19795;53.160;6.612;2023-04-15T09:44:03;2.47;;;1.70;;
33459;SDS011;19795;53.160;6.612;2023-04-15T09:46:44;14.80;;;14.00;;
33459;SDS011;19795;53.160;6.612;2023-04-15T09:49:10;2.50;;;1.77;;
33459;SDS011;19795;53.160;6.612;2023-04-15T09:51:37;4.57;;;2.28;;
33459;SDS011;19795;53.160;6.612;2023-04-15T09:54:03;4.35;;;3.72;;
33459;SDS011;19795;53.160;6.612;2023-04-15T09:56:37;10.27;;;9.57;;
33459;SDS011;19795;53.160;6.612;2023-04-15T09:59:06;2.65;;;2.00;;
33459;SDS011;19795;53.160;6.612;2023-04-15T10:01:33;46.45;;;43.97;;
33459;SDS011;19795;53.160;6.612;2023-04-15T10:04:01;3.80;;;1.70;;
33459;SDS011;19795;53.160;6.612;2023-04-15T10:06:28;3.08;;;2.05;;
33459;SDS011;19795;53.160;6.612;2023-04-15T10:08:54;2.25;;;1.70;;
33459;SDS011;19795;53.160;6.612;2023-04-15T10:11:20;7.03;;;1.85;;
33459;SDS011;19795;53.160;6.612;2023-04-15T10:13:48;3.78;;;3.47;;
33459;SDS011;19795;53.160;6.612;2023-04-15T10:16:15;6.32;;;2.08;;
33459;SDS011;19795;53.160;6.612;2023-04-15T10:18:45;3.08;;;1.70;;
33459;SDS011;19795;53.160;6.612;2023-04-15T10:21:12;2.92;;;1.70;;
33459;SDS011;19795;53.160;6.612;2023-04-15T10:23:42;5.32;;;2.63;;
33459;SDS011;19795;53.160;6.612;2023-04-15T10:26:09;3.00;;;2.80;;
33459;SDS011;19795;53.160;6.612;2023-04-15T10:28:36;1.80;;;1.60;;
33459;SDS011;19795;53.160;6.612;2023-04-15T10:31:02;4.10;;;1.83;;
33459;SDS011;19795;53.160;6.612;2023-04-15T10:33:30;6.03;;;1.85;;
33459;SDS011;19795;53.160;6.612;2023-04-15T10:35:56;3.38;;;2.00;;
33459;SDS011;19795;53.160;6.612;2023-04-15T10:41:17;6.30;;;5.75;;
33459;SDS011;19795;53.160;6.612;2023-04-15T10:43:46;3.17;;;2.00;;
33459;SDS011;19795;53.160;6.612;2023-04-15T10:46:17;6.85;;;2.10;;
33459;SDS011;19795;53.160;6.612;2023-04-15T10:49:05;6.95;;;1.98;;
33459;SDS011;19795;53.160;6.612;2023-04-15T10:51:45;2.80;;;1.73;;
33459;SDS011;19795;53.160;6.612;2023-04-15T10:54:16;7.00;;;2.45;;
33459;SDS011;19795;53.160;6.612;2023-04-15T10:59:30;12.73;;;11.90;;
33459;SDS011;19795;53.160;6.612;2023-04-15T11:02:01;3.38;;;3.08;;
33459;SDS011;19795;53.160;6.612;2023-04-15T11:07:35;30.83;;;28.67;;
33459;SDS011;19795;53.160;6.612;2023-04-15T11:10:01;2.63;;;1.55;;
33459;SDS011;19795;53.160;6.612;2023-04-15T11:12:34;7.15;;;2.78;;
33459;SDS011;19795;53.160;6.612;2023-04-15T11:15:23;3.92;;;1.67;;
33459;SDS011;19795;53.160;6.612;2023-04-15T11:18:08;5.18;;;2.10;;
33459;SDS011;19795;53.160;6.612;2023-04-15T11:20:48;7.85;;;3.60;;
33459;SDS011;19795;53.160;6.612;2023-04-15T11:23:15;7.07;;;2.13;;
33459;SDS011;19795;53.160;6.612;2023-04-15T11:25:51;5.88;;;1.90;;
33459;SDS011;19795;53.160;6.612;2023-04-15T11:28:20;8.32;;;2.20;;
33459;SDS011;19795;53.160;6.612;2023-04-15T11:30:53;3.90;;;3.55;;
33459;SDS011;19795;53.160;6.612;2023-04-15T11:33:20;4.68;;;2.13;;
33459;SDS011;19795;53.160;6.612;2023-04-15T11:35:47;2.70;;;1.65;;
33459;SDS011;19795;53.160;6.612;2023-04-15T11:38:13;3.92;;;1.85;;
33459;SDS011;19795;53.160;6.612;2023-04-15T11:40:41;2.75;;;2.55;;
33459;SDS011;19795;53.160;6.612;2023-04-15T11:45:59;8.60;;;2.10;;
33459;SDS011;19795;53.160;6.612;2023-04-15T11:48:29;7.50;;;2.30;;
33459;SDS011;19795;53.160;6.612;2023-04-15T11:51:00;7.90;;;2.08;;
33459;SDS011;19795;53.160;6.612;2023-04-15T11:56:19;3.33;;;1.40;;
33459;SDS011;19795;53.160;6.612;2023-04-15T11:58:53;9.43;;;2.42;;
33459;SDS011;19795;53.160;6.612;2023-04-15T12:01:32;8.00;;;2.25;;
33459;SDS011;19795;53.160;6.612;2023-04-15T12:04:13;7.80;;;3.10;;
33459;SDS011;19795;53.160;6.612;2023-04-15T12:06:47;7.20;;;2.08;;
33459;SDS011;19795;53.160;6.612;2023-04-15T12:09:13;1.35;;;1.25;;
33459;SDS011;19795;53.160;6.612;2023-04-15T12:11:44;7.78;;;2.65;;
33459;SDS011;19795;53.160;6.612;2023-04-15T12:16:44;2.45;;;1.63;;
33459;SDS011;19795;53.160;6.612;2023-04-15T12:19:13;4.43;;;1.55;;
33459;SDS011;19795;53.160;6.612;2023-04-15T12:21:42;5.10;;;1.77;;
33459;SDS011;19795;53.160;6.612;2023-04-15T12:24:13;4.78;;;2.92;;
33459;SDS011;19795;53.160;6.612;2023-04-15T12:26:46;4.75;;;1.95;;
33459;SDS011;19795;53.160;6.612;2023-04-15T12:29:14;2.95;;;1.30;;
33459;SDS011;19795;53.160;6.612;2023-04-15T12:31:48;6.50;;;2.25;;
33459;SDS011;19795;53.160;6.612;2023-04-15T12:34:28;3.65;;;1.70;;
33459;SDS011;19795;53.160;6.612;2023-04-15T12:36:56;2.92;;;2.03;;
33459;SDS011;19795;53.160;6.612;2023-04-15T12:39:23;5.13;;;2.05;;
33459;SDS011;19795;53.160;6.612;2023-04-15T12:41:50;2.92;;;1.70;;
33459;SDS011;19795;53.160;6.612;2023-04-15T12:44:16;6.78;;;2.08;;
33459;SDS011;19795;53.160;6.612;2023-04-15T12:46:42;6.15;;;2.35;;
33459;SDS011;19795;53.160;6.612;2023-04-15T12:49:08;5.65;;;2.35;;
33459;SDS011;19795;53.160;6.612;2023-04-15T12:51:34;3.90;;;2.25;;
33459;SDS011;19795;53.160;6.612;2023-04-15T12:53:59;4.90;;;1.70;;
33459;SDS011;19795;53.160;6.612;2023-04-15T12:56:25;3.90;;;1.98;;
33459;SDS011;19795;53.160;6.612;2023-04-15T12:58:51;5.30;;;1.77;;
33459;SDS011;19795;53.160;6.612;2023-04-15T13:01:17;5.20;;;2.40;;
33459;SDS011;19795;53.160;6.612;2023-04-15T13:03:43;5.68;;;2.33;;
33459;SDS011;19795;53.160;6.612;2023-04-15T13:06:08;4.40;;;1.92;;
33459;SDS011;19795;53.160;6.612;2023-04-15T13:08:34;2.17;;;1.33;;
33459;SDS011;19795;53.160;6.612;2023-04-15T13:11:00;4.38;;;2.28;;
33459;SDS011;19795;53.160;6.612;2023-04-15T13:13:26;2.75;;;1.17;;
33459;SDS011;19795;53.160;6.612;2023-04-15T13:15:52;9.43;;;2.00;;
33459;SDS011;19795;53.160;6.612;2023-04-15T13:18:17;3.55;;;2.50;;
33459;SDS011;19795;53.160;6.612;2023-04-15T13:20:43;7.68;;;1.92;;
33459;SDS011;19795;53.160;6.612;2023-04-15T13:23:09;3.97;;;2.20;;
33459;SDS011;19795;53.160;6.612;2023-04-15T13:25:34;3.25;;;1.83;;
33459;SDS011;19795;53.160;6.612;2023-04-15T13:28:00;5.22;;;1.90;;
33459;SDS011;19795;53.160;6.612;2023-04-15T13:30:26;8.20;;;2.13;;
33459;SDS011;19795;53.160;6.612;2023-04-15T13:32:52;14.43;;;2.53;;
33459;SDS011;19795;53.160;6.612;2023-04-15T13:35:18;3.58;;;3.35;;
33459;SDS011;19795;53.160;6.612;2023-04-15T13:37:44;7.70;;;1.98;;
33459;SDS011;19795;53.160;6.612;2023-04-15T13:40:10;3.25;;;1.73;;
33459;SDS011;19795;53.160;6.612;2023-04-15T13:42:36;9.45;;;1.88;;
33459;SDS011;19795;53.160;6.612;2023-04-15T13:45:02;6.53;;;2.25;;
33459;SDS011;19795;53.160;6.612;2023-04-15T13:47:28;11.75;;;2.08;;
33459;SDS011;19795;53.160;6.612;2023-04-15T13:49:53;5.63;;;1.80;;
33459;SDS011;19795;53.160;6.612;2023-04-15T13:52:21;3.88;;;2.20;;
33459;SDS011;19795;53.160;6.612;2023-04-15T13:54:47;6.32;;;2.13;;
33459;SDS011;19795;53.160;6.612;2023-04-15T13:57:12;4.25;;;2.22;;
33459;SDS011;19795;53.160;6.612;2023-04-15T13:59:38;6.65;;;1.60;;
33459;SDS011;19795;53.160;6.612;2023-04-15T14:02:04;3.65;;;1.83;;
33459;SDS011;19795;53.160;6.612;2023-04-15T14:04:30;5.88;;;2.08;;
33459;SDS011;19795;53.160;6.612;2023-04-15T14:06:56;7.43;;;2.00;;
33459;SDS011;19795;53.160;6.612;2023-04-15T14:09:22;3.72;;;2.28;;
33459;SDS011;19795;53.160;6.612;2023-04-15T14:11:48;4.13;;;2.08;;
33459;SDS011;19795;53.160;6.612;2023-04-15T14:14:14;2.25;;;1.35;;
33459;SDS011;19795;53.160;6.612;2023-04-15T14:16:40;3.80;;;1.95;;
33459;SDS011;19795;53.160;6.612;2023-04-15T14:19:06;4.95;;;2.45;;
33459;SDS011;19795;53.160;6.612;2023-04-15T14:21:31;8.05;;;2.10;;
33459;SDS011;19795;53.160;6.612;2023-04-15T14:23:57;5.65;;;1.65;;
33459;SDS011;19795;53.160;6.612;2023-04-15T14:26:23;5.13;;;2.00;;
33459;SDS011;19795;53.160;6.612;2023-04-15T14:28:49;7.03;;;5.25;;
33459;SDS011;19795;53.160;6.612;2023-04-15T14:31:15;3.58;;;1.88;;
33459;SDS011;19795;53.160;6.612;2023-04-15T14:33:40;12.15;;;2.40;;
33459;SDS011;19795;53.160;6.612;2023-04-15T14:36:07;5.05;;;2.22;;
33459;SDS011;19795;53.160;6.612;2023-04-15T14:38:34;9.05;;;3.13;;
33459;SDS011;19795;53.160;6.612;2023-04-15T14:41:02;6.32;;;2.70;;
33459;SDS011;19795;53.160;6.612;2023-04-15T14:43:28;4.53;;;2.30;;
33459;SDS011;19795;53.160;6.612;2023-04-15T14:45:54;3.53;;;1.83;;
33459;SDS011;19795;53.160;6.612;2023-04-15T14:48:20;9.90;;;2.70;;
33459;SDS011;19795;53.160;6.612;2023-04-15T14:50:46;10.80;;;2.78;;